Hockingport, OH (45739)

11:47 EDT le 23 octobre 2014 (GMT -0400)
Decatur TWP | Change Station
CLOSE
Current Station
Stations météorologiques personnelles
Location: Little Hocking, OH
Altitude: 719 ft
Stations météo à proximité

Alt. 719 ft 39.31 °N, 81.73 °W | Updated 3 minutes ago

Nuageux
Nuageux
53.6 ° F
Paraît 53.6 ° F
N
0.9
Vent Variable Vent de NNE
Gusts 4.7 mph

Aujourd'hui
Haut(e) -- | Bas -- ° F
--% Risque de précip.
Hier
Haut(e) -- | Bas -- ° F
Precip. -- pouce
7:44 AM 6:37 PM
Lune descendante, 0% visible
Pression 30.24 pouce
Visibilité 10.0 Miles terrestres
Nuages Couvert 1700 ft
Point de rosée 46 ° F
Humidité 75%
Précipitations 0.00 pouce
Profondeur de la couche neigeuse Non disponible.
UV 1 sur 12
Pollen .70 sur 12
Qualité de l'air Non disponible.
Flu Activity Sporadic
SPECI KPKB 231500Z 32004KT 10SM OVC017 11/07 A3024 RMK AO2 T01060067

More Conditions Fewer Conditions

Pression 30.24 pouce
Visibilité 10.0 Miles terrestres
Nuages Couvert 1700 ft
Point de rosée 46 ° F
Humidité 75%
Précipitations 0.00 pouce
Profondeur de la couche neigeuse Non disponible.
UV 1 sur 12
Pollen .70 sur 12
Qualité de l'air Non disponible.
Flu Activity Sporadic
SPECI KPKB 231500Z 32004KT 10SM OVC017 11/07 A3024 RMK AO2 T01060067

More Conditions Fewer Conditions

10-Day Weather Forecast

Almanac

Astronomie

Oct. 23, 2014 Lever Coucher
Temps réel 07:44 EDT 18:37 EDT
Crépuscule civil 07:17 EDT 19:04 EDT
Crépuscule nautique 06:46 EDT 19:35 EDT
Crépuscule astronomique 06:15 EDT 20:06 EDT
Lune 07:23 EDT 18:37 EDT
Durée de lumière visible 11h 46m
Longueur du jour
10h 52m
Tomorrow will be 2m 22s shorter.
Lune descendante, 0% of the Moon is Illuminated
Aujourd'hui
Lune descendante
Oct 23
Nouveau
Oct 30
Premier quartier
Nov 6
Pleine lune
Nov 14
Dernier quartier

Extrêmes aujourd'hui

State Highs State Lows

Community

WunderPhotos

Upload Photos

1,764,288 Photos téléchargées !

WunderBlogs® & News

Nearby

Épaisseur de neige

Station Depth Altitude
Pas de nouvelles chutes de neige

Activité sismique

Ville Distance Mag. Time & Date
No recent earthquake activity has been reported nearby.
Minimum magnitude displayed is 2.5.

Températures des eaux côtières

Lieu Température
Aucun rapport de station

Stations météo à proximité